Time;durP1;ratioP1;P1;durP2;ratioP2;P2;SDS_P1;SDS_P2;PMS_P1;PMS_P2;Temp;Humidity;BMP_temperature;BMP_pressure;BME280_temperature;BME280_humidity;BME280_pressure;Samples;Min_cycle;Max_cycle;Signal;HPM_P1;HPM_P2
2021/10/27 00:01:33;;;;;;;44.13;17.63;;;;;;;;;;5055460;28;20036;-59
2021/10/27 00:04:00;;;;;;;52.10;17.52;;;;;;;;;;5070747;28;20028;-59
2021/10/27 00:06:29;;;;;;;39.88;16.85;;;;;;;;;;5072606;28;20384;-60
2021/10/27 00:08:59;;;;;;;40.60;17.02;;;;;;;;;;5072326;28;20023;-60
2021/10/27 00:11:24;;;;;;;44.15;18.75;;;;;;;;;;5055845;28;20483;-59
2021/10/27 00:13:52;;;;;;;39.63;16.92;;;;;;;;;;5051043;28;20035;-59
2021/10/27 00:16:20;;;;;;;42.63;17.88;;;;;;;;;;5071820;28;20028;-59
2021/10/27 00:18:47;;;;;;;51.28;18.23;;;;;;;;;;5037591;28;20866;-61
2021/10/27 00:21:18;;;;;;;46.65;18.23;;;;;;;;;;5071301;28;20033;-59
2021/10/27 00:23:49;;;;;;;44.33;17.50;;;;;;;;;;5070968;28;20070;-59
2021/10/27 00:26:16;;;;;;;52.45;17.77;;;;;;;;;;5054219;28;20023;-59
2021/10/27 00:28:45;;;;;;;44.85;17.42;;;;;;;;;;5069627;28;20032;-60
2021/10/27 00:31:14;;;;;;;39.55;17.17;;;;;;;;;;5071575;28;20438;-61
2021/10/27 00:33:40;;;;;;;43.92;16.90;;;;;;;;;;5069435;28;20047;-59
2021/10/27 00:36:08;;;;;;;54.85;16.60;;;;;;;;;;5051161;28;20035;-59
2021/10/27 00:38:36;;;;;;;32.00;15.23;;;;;;;;;;5055032;28;20032;-59
2021/10/27 00:41:03;;;;;;;46.95;18.05;;;;;;;;;;5056137;28;20040;-59
2021/10/27 00:43:31;;;;;;;51.85;17.88;;;;;;;;;;5043157;28;20052;-59
2021/10/27 00:45:59;;;;;;;47.30;18.10;;;;;;;;;;5058478;28;20466;-59
2021/10/27 00:48:27;;;;;;;44.85;18.23;;;;;;;;;;5057420;28;20044;-59
2021/10/27 00:50:55;;;;;;;42.42;17.40;;;;;;;;;;5075061;28;20028;-59
2021/10/27 00:53:25;;;;;;;36.35;16.95;;;;;;;;;;5052976;28;20034;-60
2021/10/27 00:55:51;;;;;;;43.92;15.70;;;;;;;;;;5056408;28;20137;-60
2021/10/27 00:58:19;;;;;;;45.05;16.83;;;;;;;;;;5056012;28;20028;-59
2021/10/27 01:00:47;;;;;;;40.75;15.70;;;;;;;;;;5056429;28;20040;-61
2021/10/27 01:03:13;;;;;;;37.88;16.77;;;;;;;;;;5070973;28;20043;-59
2021/10/27 01:05:39;;;;;;;37.10;16.50;;;;;;;;;;5057172;28;20067;-59
2021/10/27 01:08:05;;;;;;;44.65;14.93;;;;;;;;;;5055824;28;20081;-59
2021/10/27 01:10:31;;;;;;;45.92;17.27;;;;;;;;;;5050245;28;20032;-60
2021/10/27 01:12:57;;;;;;;45.97;16.42;;;;;;;;;;5072025;28;20109;-60
2021/10/27 01:15:24;;;;;;;51.22;17.92;;;;;;;;;;5055437;28;20547;-59
2021/10/27 01:17:51;;;;;;;41.42;17.40;;;;;;;;;;5071684;28;20123;-61
2021/10/27 01:20:19;;;;;;;43.13;16.10;;;;;;;;;;5036471;28;20052;-59
2021/10/27 01:22:47;;;;;;;42.63;16.15;;;;;;;;;;5050755;28;21108;-59
2021/10/27 01:25:15;;;;;;;34.75;15.50;;;;;;;;;;5053202;28;20043;-60
2021/10/27 01:27:45;;;;;;;43.00;14.48;;;;;;;;;;5034405;28;20036;-58
2021/10/27 01:30:14;;;;;;;41.45;14.88;;;;;;;;;;5051513;28;20146;-59
2021/10/27 01:32:42;;;;;;;43.60;13.45;;;;;;;;;;5055642;28;20035;-59
2021/10/27 01:35:08;;;;;;;42.65;15.23;;;;;;;;;;5051808;28;20089;-58
2021/10/27 01:37:34;;;;;;;43.17;14.63;;;;;;;;;;5052940;28;20059;-58
2021/10/27 01:40:03;;;;;;;32.15;14.65;;;;;;;;;;5052868;28;20072;-59
2021/10/27 01:42:28;;;;;;;42.97;14.05;;;;;;;;;;5052775;28;20049;-59
2021/10/27 01:44:56;;;;;;;39.13;14.23;;;;;;;;;;5047961;28;20040;-59
2021/10/27 01:47:24;;;;;;;37.38;14.15;;;;;;;;;;5052275;28;20046;-59
2021/10/27 01:49:49;;;;;;;27.60;12.88;;;;;;;;;;5033028;28;20168;-59
2021/10/27 01:52:17;;;;;;;38.50;12.60;;;;;;;;;;5050125;28;20044;-58
2021/10/27 01:54:48;;;;;;;37.28;12.38;;;;;;;;;;5047234;28;20509;-60
2021/10/27 01:57:18;;;;;;;35.63;12.10;;;;;;;;;;5052450;28;21508;-60
2021/10/27 01:59:47;;;;;;;41.60;11.15;;;;;;;;;;5050118;28;20037;-59
2021/10/27 02:02:12;;;;;;;20.02;10.77;;;;;;;;;;5051145;28;20074;-59
2021/10/27 02:04:41;;;;;;;34.55;10.73;;;;;;;;;;5050427;28;20119;-60
2021/10/27 02:07:10;;;;;;;39.38;10.63;;;;;;;;;;5051341;28;20599;-59
2021/10/27 02:09:38;;;;;;;34.53;9.93;;;;;;;;;;5052372;28;20024;-59
2021/10/27 02:12:07;;;;;;;37.88;9.80;;;;;;;;;;5032335;28;20042;-59
2021/10/27 02:14:35;;;;;;;33.08;9.23;;;;;;;;;;5048679;28;20024;-59
2021/10/27 02:17:03;;;;;;;26.33;8.77;;;;;;;;;;5050482;28;20060;-58
2021/10/27 02:19:30;;;;;;;19.98;8.90;;;;;;;;;;5054759;28;20050;-59
2021/10/27 02:22:00;;;;;;;25.38;8.85;;;;;;;;;;5071826;28;20039;-60
2021/10/27 02:24:26;;;;;;;26.67;9.13;;;;;;;;;;5056778;28;20773;-58
2021/10/27 02:26:52;;;;;;;23.83;9.55;;;;;;;;;;5072380;28;20035;-59
2021/10/27 02:29:18;;;;;;;46.50;10.02;;;;;;;;;;5052683;28;20035;-59
2021/10/27 02:31:43;;;;;;;34.75;9.75;;;;;;;;;;5057644;28;20054;-59
2021/10/27 02:34:08;;;;;;;27.88;10.07;;;;;;;;;;5071126;28;20040;-60
2021/10/27 02:36:34;;;;;;;32.60;9.65;;;;;;;;;;5053727;28;20028;-58
2021/10/27 02:38:59;;;;;;;24.73;8.52;;;;;;;;;;5069263;28;20136;-59
2021/10/27 02:41:29;;;;;;;40.08;12.48;;;;;;;;;;5067991;28;20114;-59
2021/10/27 02:43:57;;;;;;;26.58;11.27;;;;;;;;;;5069279;28;20028;-59
2021/10/27 02:46:22;;;;;;;29.42;11.10;;;;;;;;;;5053969;28;20082;-59
2021/10/27 02:48:48;;;;;;;25.70;9.27;;;;;;;;;;5069050;28;20052;-59
2021/10/27 02:51:14;;;;;;;31.40;11.10;;;;;;;;;;5052259;28;20115;-60
2021/10/27 02:53:39;;;;;;;30.65;10.30;;;;;;;;;;5073810;28;20032;-59
2021/10/27 02:56:07;;;;;;;26.23;9.68;;;;;;;;;;5034023;28;20428;-59
2021/10/27 02:58:38;;;;;;;30.52;9.13;;;;;;;;;;5072275;28;20110;-59
2021/10/27 03:01:03;;;;;;;34.83;9.80;;;;;;;;;;5042073;28;20079;-59
2021/10/27 03:03:31;;;;;;;32.30;10.00;;;;;;;;;;5054613;28;20038;-58
2021/10/27 03:05:59;;;;;;;24.40;8.57;;;;;;;;;;5054583;28;20036;-59
2021/10/27 03:08:27;;;;;;;28.13;9.20;;;;;;;;;;5073188;28;20178;-59
2021/10/27 03:10:53;;;;;;;31.33;9.60;;;;;;;;;;5037661;28;20463;-58
2021/10/27 03:13:18;;;;;;;22.98;8.85;;;;;;;;;;5035906;28;20039;-58
2021/10/27 03:15:44;;;;;;;20.92;8.05;;;;;;;;;;5035012;28;20101;-59
2021/10/27 03:18:14;;;;;;;40.10;8.77;;;;;;;;;;5050642;28;20027;-60
2021/10/27 03:20:42;;;;;;;24.45;9.18;;;;;;;;;;5068690;28;20048;-58
2021/10/27 03:23:07;;;;;;;38.92;8.77;;;;;;;;;;5069806;28;20036;-59
2021/10/27 03:25:33;;;;;;;26.38;8.45;;;;;;;;;;5055807;28;20531;-59
2021/10/27 03:27:59;;;;;;;29.05;7.70;;;;;;;;;;5058562;28;20040;-61
2021/10/27 03:30:24;;;;;;;25.02;7.50;;;;;;;;;;5072257;28;20091;-59
2021/10/27 03:32:54;;;;;;;23.75;7.70;;;;;;;;;;5069543;28;20020;-59
2021/10/27 03:35:24;;;;;;;37.22;7.00;;;;;;;;;;5052330;28;20039;-59
2021/10/27 03:37:50;;;;;;;27.45;6.43;;;;;;;;;;5072663;28;20731;-58
2021/10/27 03:40:20;;;;;;;15.48;5.53;;;;;;;;;;5073661;28;20403;-60
2021/10/27 03:42:47;;;;;;;19.23;5.68;;;;;;;;;;5054541;28;20040;-59
2021/10/27 03:45:18;;;;;;;24.60;6.22;;;;;;;;;;5055007;28;20024;-59
2021/10/27 03:47:50;;;;;;;21.38;5.25;;;;;;;;;;5037416;28;20063;-59
2021/10/27 03:50:16;;;;;;;22.75;5.57;;;;;;;;;;5037441;28;20554;-59
2021/10/27 03:52:44;;;;;;;23.38;5.60;;;;;;;;;;5073125;28;20023;-59
2021/10/27 03:55:14;;;;;;;22.85;4.60;;;;;;;;;;5055533;28;20028;-59
2021/10/27 03:57:40;;;;;;;14.65;4.18;;;;;;;;;;5035820;28;20058;-59
2021/10/27 04:00:09;;;;;;;14.65;3.72;;;;;;;;;;5071182;28;20023;-59
2021/10/27 04:02:41;;;;;;;14.60;3.28;;;;;;;;;;5070301;28;20031;-58
2021/10/27 04:05:10;;;;;;;14.73;3.40;;;;;;;;;;5072732;28;20114;-59
2021/10/27 04:07:37;;;;;;;25.80;2.85;;;;;;;;;;5072683;28;20055;-59
2021/10/27 04:10:07;;;;;;;20.33;3.70;;;;;;;;;;5058864;28;21920;-59
2021/10/27 04:12:36;;;;;;;11.48;3.38;;;;;;;;;;5076886;28;20156;-58
2021/10/27 04:15:05;;;;;;;15.07;3.30;;;;;;;;;;5076049;28;20031;-58
2021/10/27 04:17:36;;;;;;;14.40;2.55;;;;;;;;;;5076360;28;20045;-59
2021/10/27 04:20:04;;;;;;;4.13;2.50;;;;;;;;;;5057687;28;20083;-60
2021/10/27 04:22:30;;;;;;;23.70;3.60;;;;;;;;;;5074959;28;20051;-58
2021/10/27 04:24:58;;;;;;;14.05;2.80;;;;;;;;;;5055676;28;20067;-59
2021/10/27 04:27:28;;;;;;;12.88;2.28;;;;;;;;;;5056735;28;20096;-59
2021/10/27 04:29:56;;;;;;;18.15;4.28;;;;;;;;;;5059313;28;20023;-58
2021/10/27 04:32:21;;;;;;;22.20;3.38;;;;;;;;;;5043803;28;20016;-59
2021/10/27 04:34:50;;;;;;;11.55;2.92;;;;;;;;;;5039935;28;20069;-59
2021/10/27 04:37:16;;;;;;;12.13;2.65;;;;;;;;;;5078077;28;20032;-59
2021/10/27 04:39:48;;;;;;;16.92;3.25;;;;;;;;;;5074900;28;20146;-61
2021/10/27 04:42:19;;;;;;;18.30;3.10;;;;;;;;;;5078336;28;20044;-60
2021/10/27 04:44:44;;;;;;;24.65;3.28;;;;;;;;;;5055512;28;20039;-60
2021/10/27 04:47:10;;;;;;;17.73;2.80;;;;;;;;;;5043139;28;20136;-60
2021/10/27 04:49:35;;;;;;;10.23;2.45;;;;;;;;;;5074303;28;20055;-60
2021/10/27 04:52:05;;;;;;;12.57;2.47;;;;;;;;;;5059062;28;20110;-59
2021/10/27 04:54:33;;;;;;;11.82;2.28;;;;;;;;;;5074540;28;20020;-59
2021/10/27 04:57:06;;;;;;;17.52;2.90;;;;;;;;;;5058858;28;20032;-61
2021/10/27 04:59:46;;;;;;;13.93;2.22;;;;;;;;;;5040580;28;20113;-61
2021/10/27 05:02:13;;;;;;;12.73;2.70;;;;;;;;;;5043097;28;20040;-59
2021/10/27 05:04:38;;;;;;;16.17;2.75;;;;;;;;;;5058683;28;20036;-60
2021/10/27 05:07:06;;;;;;;18.98;3.30;;;;;;;;;;5032949;28;20911;-59
2021/10/27 05:09:36;;;;;;;14.95;2.63;;;;;;;;;;5074797;28;20038;-59
2021/10/27 05:12:04;;;;;;;13.10;2.25;;;;;;;;;;5057557;28;20036;-60
2021/10/27 05:14:32;;;;;;;21.63;2.80;;;;;;;;;;5040586;28;20155;-58
2021/10/27 05:17:00;;;;;;;15.60;2.45;;;;;;;;;;5077096;28;20947;-60
2021/10/27 05:19:26;;;;;;;15.65;2.97;;;;;;;;;;5023234;28;20048;-59
2021/10/27 05:21:51;;;;;;;14.65;2.70;;;;;;;;;;5059360;28;20055;-60
2021/10/27 05:24:17;;;;;;;15.82;2.90;;;;;;;;;;5057952;28;20093;-60
2021/10/27 05:26:44;;;;;;;19.38;3.35;;;;;;;;;;5058869;28;20040;-59
2021/10/27 05:29:14;;;;;;;20.00;2.75;;;;;;;;;;5058026;28;20085;-59
2021/10/27 05:31:43;;;;;;;23.15;2.78;;;;;;;;;;5058779;28;20028;-59
2021/10/27 05:34:13;;;;;;;19.85;3.22;;;;;;;;;;5056859;28;20471;-58
2021/10/27 05:36:38;;;;;;;21.70;2.90;;;;;;;;;;5075721;28;20056;-59
2021/10/27 05:39:06;;;;;;;14.20;3.03;;;;;;;;;;5041085;28;20548;-59
2021/10/27 05:41:38;;;;;;;16.27;3.00;;;;;;;;;;5074623;28;20032;-61
2021/10/27 05:44:03;;;;;;;11.65;3.00;;;;;;;;;;5040290;28;20035;-60
2021/10/27 05:46:31;;;;;;;7.80;2.22;;;;;;;;;;5075741;28;20028;-59
2021/10/27 05:49:04;;;;;;;20.40;3.08;;;;;;;;;;5057339;28;20058;-58
2021/10/27 05:51:39;;;;;;;19.02;2.85;;;;;;;;;;5024876;28;20356;-59
2021/10/27 05:56:52;;;;;;;28.65;3.10;;;;;;;;;;5074490;28;20032;-59
2021/10/27 05:59:20;;;;;;;15.32;2.70;;;;;;;;;;5055666;28;20064;-60
2021/10/27 06:01:45;;;;;;;17.90;3.33;;;;;;;;;;5059849;28;20036;-59
2021/10/27 06:04:10;;;;;;;18.30;4.00;;;;;;;;;;5074303;28;20016;-58
2021/10/27 06:06:38;;;;;;;25.77;4.07;;;;;;;;;;5057649;28;20051;-60
2021/10/27 06:09:06;;;;;;;22.25;3.90;;;;;;;;;;5058725;28;21957;-61
2021/10/27 06:11:33;;;;;;;21.60;4.15;;;;;;;;;;5075273;28;20238;-62
2021/10/27 06:13:59;;;;;;;18.20;3.88;;;;;;;;;;5040018;28;20158;-59
2021/10/27 06:16:27;;;;;;;16.95;3.22;;;;;;;;;;5058249;28;20024;-60
2021/10/27 06:18:52;;;;;;;12.40;3.97;;;;;;;;;;5055946;28;20039;-60
2021/10/27 06:21:21;;;;;;;30.42;4.75;;;;;;;;;;5074023;28;20059;-60
2021/10/27 06:23:48;;;;;;;24.38;4.25;;;;;;;;;;5075070;28;20111;-59
2021/10/27 06:26:18;;;;;;;23.00;4.15;;;;;;;;;;5074004;28;20020;-59
2021/10/27 06:31:40;;;;;;;23.05;4.88;;;;;;;;;;5048088;28;20126;-58
2021/10/27 06:47:08;;;;;;;19.83;4.90;;;;;;;;;;5074497;28;20589;-60
2021/10/27 06:49:34;;;;;;;18.45;4.40;;;;;;;;;;5073917;28;20024;-59
2021/10/27 06:52:02;;;;;;;31.83;5.72;;;;;;;;;;5073931;28;20142;-59
2021/10/27 06:54:27;;;;;;;15.73;6.40;;;;;;;;;;5072412;28;20073;-59
2021/10/27 06:56:53;;;;;;;21.90;5.60;;;;;;;;;;5057325;28;20064;-60
2021/10/27 06:59:36;;;;;;;23.52;6.35;;;;;;;;;;5072637;28;21092;-59
2021/10/27 07:17:57;;;;;;;18.52;6.40;;;;;;;;;;5072077;28;20028;-59
2021/10/27 07:20:24;;;;;;;15.25;5.45;;;;;;;;;;5073086;28;20040;-59
2021/10/27 07:22:54;;;;;;;14.45;5.47;;;;;;;;;;5055941;28;20062;-59
2021/10/27 07:25:19;;;;;;;17.25;5.57;;;;;;;;;;5056024;28;20038;-60
2021/10/27 07:27:50;;;;;;;12.18;4.40;;;;;;;;;;5073351;28;20036;-59
2021/10/27 07:30:16;;;;;;;12.35;4.93;;;;;;;;;;5072520;28;20115;-59
2021/10/27 07:32:44;;;;;;;14.73;5.60;;;;;;;;;;5054932;28;20119;-60
2021/10/27 07:40:35;;;;;;;16.15;6.22;;;;;;;;;;5055092;28;20044;-59
2021/10/27 07:43:07;;;;;;;19.77;6.40;;;;;;;;;;5072697;28;20055;-60
2021/10/27 07:45:33;;;;;;;20.08;6.07;;;;;;;;;;5056463;28;20036;-59
2021/10/27 07:48:01;;;;;;;14.75;6.28;;;;;;;;;;5053896;28;20032;-60
2021/10/27 07:50:27;;;;;;;32.88;7.40;;;;;;;;;;5074696;28;21324;-61
2021/10/27 07:52:53;;;;;;;20.88;6.80;;;;;;;;;;5056226;28;20012;-59
2021/10/27 07:55:21;;;;;;;15.25;6.43;;;;;;;;;;5073742;28;20058;-59
2021/10/27 07:57:47;;;;;;;21.75;6.80;;;;;;;;;;5074676;28;20027;-59
2021/10/27 08:00:20;;;;;;;24.30;7.47;;;;;;;;;;5071423;28;20191;-59
2021/10/27 08:02:49;;;;;;;16.15;6.72;;;;;;;;;;5041563;28;20105;-60
2021/10/27 08:05:15;;;;;;;13.65;6.38;;;;;;;;;;5072622;28;20624;-60
2021/10/27 08:07:45;;;;;;;30.67;8.10;;;;;;;;;;5072826;28;20035;-60
2021/10/27 08:10:14;;;;;;;13.70;7.57;;;;;;;;;;5074248;28;20028;-60
2021/10/27 08:12:41;;;;;;;22.15;7.72;;;;;;;;;;5072560;28;20024;-59
2021/10/27 08:15:07;;;;;;;19.73;7.15;;;;;;;;;;5057204;28;20031;-59
2021/10/27 08:17:34;;;;;;;20.55;7.72;;;;;;;;;;5055384;28;20671;-59
2021/10/27 08:20:05;;;;;;;18.48;7.85;;;;;;;;;;5072271;28;20044;-60
2021/10/27 08:22:36;;;;;;;22.38;8.50;;;;;;;;;;5073070;28;20849;-61
2021/10/27 08:25:15;;;;;;;27.23;8.80;;;;;;;;;;5023671;28;20506;-60
2021/10/27 08:27:40;;;;;;;17.95;7.32;;;;;;;;;;5072159;28;20048;-60
2021/10/27 08:30:07;;;;;;;16.15;9.15;;;;;;;;;;5038575;28;20040;-59
2021/10/27 08:32:48;;;;;;;27.58;9.88;;;;;;;;;;5022069;28;20024;-59
2021/10/27 08:35:14;;;;;;;23.73;8.65;;;;;;;;;;5059662;28;20111;-59
2021/10/27 08:37:43;;;;;;;16.00;8.48;;;;;;;;;;5072257;28;20046;-59
2021/10/27 08:40:09;;;;;;;25.13;8.07;;;;;;;;;;5071249;28;20054;-59
2021/10/27 08:42:35;;;;;;;17.00;8.05;;;;;;;;;;5053491;28;20036;-59
2021/10/27 08:45:00;;;;;;;23.23;9.13;;;;;;;;;;5069600;28;20035;-60
2021/10/27 08:47:31;;;;;;;17.95;9.20;;;;;;;;;;5056493;28;20035;-60
2021/10/27 08:49:57;;;;;;;15.77;8.77;;;;;;;;;;5070517;28;20088;-61
2021/10/27 08:52:23;;;;;;;16.70;8.50;;;;;;;;;;5073289;28;20024;-61
2021/10/27 08:54:49;;;;;;;18.08;8.07;;;;;;;;;;5073953;28;20141;-60
2021/10/27 08:57:18;;;;;;;15.40;7.53;;;;;;;;;;5040755;28;20065;-59
2021/10/27 09:07:32;;;;;;;19.95;6.75;;;;;;;;;;5060147;28;20056;-59
2021/10/27 09:10:39;;;;;;;23.23;6.75;;;;;;;;;;5057047;28;20032;-60
2021/10/27 09:38:10;;;;;;;22.67;8.57;;;;;;;;;;5076376;28;20103;-60
2021/10/27 10:05:06;;;;;;;;;;;;;;;;;;5074467;28;20059;-60
2021/10/27 10:07:35;;;;;;;15.05;5.65;;;;;;;;;;5073930;28;19924;-60
2021/10/27 10:10:03;;;;;;;11.23;4.55;;;;;;;;;;5057038;28;20028;-60
2021/10/27 10:12:32;;;;;;;10.15;4.63;;;;;;;;;;5058257;28;20548;-59
2021/10/27 10:14:59;;;;;;;9.77;3.72;;;;;;;;;;5039212;28;20405;-60
2021/10/27 10:17:27;;;;;;;13.15;3.45;;;;;;;;;;5074395;28;20115;-59
2021/10/27 10:19:55;;;;;;;8.10;3.33;;;;;;;;;;5073852;28;20047;-60
2021/10/27 10:22:31;;;;;;;4.47;3.20;;;;;;;;;;5076234;28;20127;-60
2021/10/27 10:25:19;;;;;;;9.98;3.08;;;;;;;;;;5074960;28;20071;-60
2021/10/27 10:27:51;;;;;;;12.02;3.90;;;;;;;;;;5074556;28;20081;-59
2021/10/27 10:30:33;;;;;;;9.30;2.88;;;;;;;;;;5056252;28;20269;-59
2021/10/27 10:33:05;;;;;;;9.75;2.75;;;;;;;;;;5039667;28;20122;-59
2021/10/27 10:35:46;;;;;;;9.35;2.67;;;;;;;;;;5072423;28;20040;-59
2021/10/27 10:38:28;;;;;;;6.93;3.08;;;;;;;;;;5074442;28;20168;-60
2021/10/27 11:03:29;;;;;;;5.45;1.90;;;;;;;;;;5055378;28;20043;-59
2021/10/27 11:23:16;;;;;;;8.93;2.50;;;;;;;;;;5041825;28;20066;-59
2021/10/27 11:40:13;;;;;;;15.38;2.17;;;;;;;;;;5072537;28;20160;-60
2021/10/27 11:45:21;;;;;;;9.98;2.17;;;;;;;;;;5072596;28;20051;-60
2021/10/27 11:47:54;;;;;;;8.52;1.88;;;;;;;;;;5055222;28;20114;-60
2021/10/27 11:50:20;;;;;;;10.35;2.55;;;;;;;;;;5038212;28;20123;-60
2021/10/27 11:52:52;;;;;;;10.10;1.75;;;;;;;;;;5073076;28;20055;-59
2021/10/27 11:55:18;;;;;;;4.15;1.90;;;;;;;;;;5055141;28;20056;-59
2021/10/27 11:57:45;;;;;;;7.07;2.15;;;;;;;;;;5073155;28;21917;-59
2021/10/27 12:00:42;;;;;;;8.63;1.73;;;;;;;;;;5058681;28;20085;-60
2021/10/27 12:16:27;;;;;;;16.15;2.05;;;;;;;;;;5074153;28;20051;-59
2021/10/27 12:18:55;;;;;;;10.95;2.47;;;;;;;;;;5059839;28;20142;-60
2021/10/27 12:21:25;;;;;;;9.15;1.58;;;;;;;;;;5038890;28;20126;-59
2021/10/27 12:23:52;;;;;;;9.65;2.00;;;;;;;;;;5059140;28;20087;-60
2021/10/27 12:26:22;;;;;;;9.52;2.10;;;;;;;;;;5054702;28;20119;-60
2021/10/27 12:29:01;;;;;;;6.88;1.48;;;;;;;;;;5070885;28;20032;-60
2021/10/27 12:31:30;;;;;;;9.10;1.73;;;;;;;;;;5058812;28;20085;-60
2021/10/27 12:33:56;;;;;;;11.32;2.30;;;;;;;;;;5041769;28;20110;-60
2021/10/27 12:36:26;;;;;;;11.93;1.70;;;;;;;;;;5059046;28;20032;-59
2021/10/27 12:39:11;;;;;;;6.20;1.63;;;;;;;;;;5058509;28;20031;-61
2021/10/27 12:41:39;;;;;;;8.35;1.42;;;;;;;;;;5076980;28;20036;-62
2021/10/27 12:44:24;;;;;;;5.80;1.75;;;;;;;;;;5057335;28;20035;-59
2021/10/27 12:47:10;;;;;;;3.42;1.42;;;;;;;;;;5077737;28;20036;-60
2021/10/27 12:49:36;;;;;;;6.72;1.90;;;;;;;;;;5076450;28;20379;-60
2021/10/27 12:52:23;;;;;;;8.13;1.73;;;;;;;;;;5043063;28;20024;-61
2021/10/27 12:55:04;;;;;;;7.93;1.92;;;;;;;;;;5076375;28;22112;-62
2021/10/27 12:57:40;;;;;;;7.00;1.77;;;;;;;;;;5059699;28;20043;-58
2021/10/27 13:00:19;;;;;;;12.55;2.33;;;;;;;;;;5077749;28;20031;-59
2021/10/27 13:02:55;;;;;;;5.72;2.35;;;;;;;;;;5076376;28;20112;-60
2021/10/27 13:05:33;;;;;;;6.60;2.20;;;;;;;;;;5042133;28;20131;-60
2021/10/27 13:08:07;;;;;;;11.98;2.55;;;;;;;;;;5076649;28;20043;-59
2021/10/27 13:13:27;;;;;;;4.88;1.70;;;;;;;;;;5059724;28;20039;-59
2021/10/27 13:15:57;;;;;;;7.45;2.50;;;;;;;;;;5058319;28;20043;-60
2021/10/27 13:32:03;;;;;;;10.05;2.67;;;;;;;;;;5059629;28;20127;-60
2021/10/27 13:34:29;;;;;;;14.48;2.95;;;;;;;;;;5072970;28;20024;-61
2021/10/27 13:36:55;;;;;;;11.05;2.97;;;;;;;;;;5060380;28;20032;-60
2021/10/27 13:39:22;;;;;;;11.13;2.88;;;;;;;;;;5074189;28;20193;-60
2021/10/27 13:41:59;;;;;;;6.28;2.78;;;;;;;;;;5058696;28;20115;-60
2021/10/27 13:44:29;;;;;;;9.50;3.35;;;;;;;;;;5073201;28;20439;-60
2021/10/27 14:08:43;;;;;;;10.88;2.60;;;;;;;;;;5058358;28;20027;-61
2021/10/27 14:18:52;;;;;;;7.90;3.00;;;;;;;;;;5073719;28;20039;-59
2021/10/27 14:40:47;;;;;;;5.50;2.47;;;;;;;;;;5059065;28;20063;-59
2021/10/27 15:27:47;;;;;;;13.63;2.75;;;;;;;;;;5074598;28;20036;-59
2021/10/27 15:30:28;;;;;;;7.60;3.30;;;;;;;;;;5041178;28;20470;-61
2021/10/27 15:33:10;;;;;;;9.75;3.47;;;;;;;;;;5073647;28;20168;-59
2021/10/27 15:51:50;;;;;;;7.32;3.08;;;;;;;;;;5056416;28;20038;-59
2021/10/27 15:54:15;;;;;;;7.63;3.17;;;;;;;;;;5072714;28;20023;-58
2021/10/27 15:56:42;;;;;;;15.70;3.50;;;;;;;;;;5074274;28;20036;-59
2021/10/27 15:59:11;;;;;;;10.45;3.33;;;;;;;;;;5055687;28;20050;-60
2021/10/27 16:01:37;;;;;;;9.13;3.15;;;;;;;;;;5051784;28;20027;-61
2021/10/27 16:04:03;;;;;;;11.07;3.88;;;;;;;;;;5062066;28;20043;-61
2021/10/27 16:06:39;;;;;;;8.88;4.07;;;;;;;;;;5059005;28;20028;-59
2021/10/27 16:09:11;;;;;;;8.30;3.78;;;;;;;;;;5058095;28;20043;-60
2021/10/27 16:11:36;;;;;;;9.00;4.05;;;;;;;;;;5047274;28;20043;-61
2021/10/27 16:14:05;;;;;;;8.48;3.85;;;;;;;;;;5076518;28;20035;-61
2021/10/27 16:16:30;;;;;;;9.10;3.53;;;;;;;;;;5078302;28;20150;-59
2021/10/27 16:18:57;;;;;;;13.23;4.13;;;;;;;;;;5042535;28;20063;-61
2021/10/27 16:21:22;;;;;;;15.18;4.63;;;;;;;;;;5039227;28;20059;-60
2021/10/27 16:23:48;;;;;;;8.30;4.25;;;;;;;;;;5077787;28;20035;-61
2021/10/27 16:26:20;;;;;;;10.13;3.00;;;;;;;;;;5041163;28;20032;-61
2021/10/27 16:28:50;;;;;;;12.60;4.57;;;;;;;;;;5049063;28;20039;-60
2021/10/27 16:31:18;;;;;;;6.50;3.58;;;;;;;;;;5060119;28;20119;-59
2021/10/27 16:33:46;;;;;;;8.20;3.65;;;;;;;;;;5077854;28;20030;-60
2021/10/27 16:36:12;;;;;;;7.40;3.90;;;;;;;;;;5041576;28;20054;-60
2021/10/27 16:38:38;;;;;;;6.10;3.85;;;;;;;;;;5043075;28;20149;-60
2021/10/27 16:41:06;;;;;;;5.35;3.63;;;;;;;;;;5042736;28;20051;-62
2021/10/27 16:43:34;;;;;;;8.70;3.53;;;;;;;;;;5076410;28;20035;-60
2021/10/27 16:46:01;;;;;;;11.23;3.75;;;;;;;;;;5057602;28;20043;-61
2021/10/27 16:48:29;;;;;;;14.77;4.55;;;;;;;;;;5043607;28;20069;-61
2021/10/27 16:50:59;;;;;;;6.88;3.33;;;;;;;;;;5075762;28;20581;-59
2021/10/27 16:53:26;;;;;;;7.78;3.40;;;;;;;;;;5077411;28;20027;-59
2021/10/27 16:55:52;;;;;;;7.00;3.83;;;;;;;;;;5075454;28;20024;-60
2021/10/27 16:58:19;;;;;;;13.23;4.20;;;;;;;;;;5076106;28;20030;-61
2021/10/27 17:00:46;;;;;;;10.73;3.70;;;;;;;;;;5076105;28;20077;-58
2021/10/27 17:03:11;;;;;;;8.90;4.03;;;;;;;;;;5075820;28;20899;-62
2021/10/27 17:05:37;;;;;;;11.25;4.30;;;;;;;;;;5076475;28;20036;-60
2021/10/27 17:08:03;;;;;;;6.38;3.40;;;;;;;;;;5077488;28;20641;-60
2021/10/27 17:10:29;;;;;;;6.60;3.05;;;;;;;;;;5056777;28;20483;-60
2021/10/27 17:12:54;;;;;;;7.80;4.03;;;;;;;;;;5075999;28;20043;-59
2021/10/27 17:15:20;;;;;;;10.82;3.40;;;;;;;;;;5057183;28;20028;-60
2021/10/27 17:17:50;;;;;;;9.27;3.80;;;;;;;;;;5058254;28;20023;-61
2021/10/27 17:20:17;;;;;;;11.00;4.00;;;;;;;;;;5041174;28;20051;-59
2021/10/27 17:22:46;;;;;;;6.20;3.25;;;;;;;;;;5058622;28;20069;-60
2021/10/27 17:25:15;;;;;;;11.93;2.85;;;;;;;;;;5075810;28;20541;-61
2021/10/27 17:27:41;;;;;;;11.45;3.35;;;;;;;;;;5073295;28;20828;-60
2021/10/27 17:30:16;;;;;;;11.95;4.63;;;;;;;;;;5057749;28;20106;-60
2021/10/27 17:32:45;;;;;;;9.50;4.82;;;;;;;;;;5058876;28;20028;-61
2021/10/27 17:35:14;;;;;;;7.57;4.00;;;;;;;;;;5059033;28;20041;-61
2021/10/27 17:37:40;;;;;;;11.98;4.18;;;;;;;;;;5076409;28;20035;-59
2021/10/27 17:40:21;;;;;;;15.15;5.25;;;;;;;;;;5075130;28;20491;-60
2021/10/27 17:42:48;;;;;;;14.23;5.28;;;;;;;;;;5058537;28;20040;-63
2021/10/27 17:45:20;;;;;;;8.57;4.82;;;;;;;;;;5041752;28;20032;-61
2021/10/27 17:47:50;;;;;;;14.57;5.63;;;;;;;;;;5057292;28;20371;-60
2021/10/27 17:57:29;;;;;;;16.33;5.70;;;;;;;;;;5060561;28;20032;-61
2021/10/27 18:00:49;;;;;;;17.25;7.15;;;;;;;;;;5076188;28;20019;-59
2021/10/27 18:03:19;;;;;;;14.80;6.70;;;;;;;;;;5056454;28;20745;-59
2021/10/27 18:05:47;;;;;;;12.77;6.55;;;;;;;;;;5075555;28;20027;-59
2021/10/27 18:08:17;;;;;;;12.38;7.43;;;;;;;;;;5059352;28;20200;-61
2021/10/27 18:10:51;;;;;;;11.52;6.60;;;;;;;;;;5071501;28;20036;-61
2021/10/27 18:13:22;;;;;;;13.73;6.82;;;;;;;;;;5058362;28;20024;-61
2021/10/27 18:15:55;;;;;;;10.40;6.45;;;;;;;;;;5057913;28;20028;-60
2021/10/27 18:18:30;;;;;;;13.15;6.53;;;;;;;;;;5056792;28;20032;-61
2021/10/27 18:20:58;;;;;;;18.65;8.00;;;;;;;;;;5075505;28;20048;-61
2021/10/27 18:23:46;;;;;;;16.00;7.30;;;;;;;;;;5058827;28;20050;-60
2021/10/27 18:39:56;;;;;;;23.10;8.70;;;;;;;;;;5073051;28;20115;-62
2021/10/27 18:42:33;;;;;;;16.23;9.18;;;;;;;;;;5057164;28;20036;-61
2021/10/27 18:44:59;;;;;;;12.75;9.00;;;;;;;;;;5074310;28;20036;-62
2021/10/27 18:47:28;;;;;;;14.20;9.25;;;;;;;;;;5055620;28;20045;-62
2021/10/27 18:49:56;;;;;;;18.90;9.48;;;;;;;;;;5072468;28;20036;-60
2021/10/27 18:52:38;;;;;;;22.67;9.32;;;;;;;;;;5039728;28;20015;-62
2021/10/27 18:55:08;;;;;;;20.77;10.00;;;;;;;;;;5055761;28;20533;-60
2021/10/27 19:00:16;;;;;;;20.38;10.75;;;;;;;;;;5073360;28;20036;-59
2021/10/27 19:11:04;;;;;;;21.08;10.82;;;;;;;;;;5058067;28;20028;-61
2021/10/27 19:15:58;;;;;;;20.92;10.40;;;;;;;;;;5073369;28;20024;-60
2021/10/27 19:18:24;;;;;;;21.27;10.75;;;;;;;;;;5055858;28;20043;-63
2021/10/27 19:20:50;;;;;;;24.58;10.20;;;;;;;;;;5061034;28;20044;-61
2021/10/27 19:23:16;;;;;;;20.38;10.43;;;;;;;;;;5073262;28;20616;-61
2021/10/27 19:28:42;;;;;;;20.42;10.60;;;;;;;;;;5074291;28;20048;-61
2021/10/27 20:07:12;;;;;;;29.73;12.90;;;;;;;;;;5055690;28;20047;-64
2021/10/27 20:10:27;;;;;;;26.77;12.90;;;;;;;;;;5042785;28;20406;-63
2021/10/27 20:24:08;;;;;;;35.00;14.90;;;;;;;;;;5073411;28;20629;-61
2021/10/27 20:48:43;;;;;;;30.67;13.18;;;;;;;;;;5059649;28;20040;-61
2021/10/27 20:51:16;;;;;;;29.42;14.20;;;;;;;;;;5058050;28;20028;-62
2021/10/27 20:53:49;;;;;;;31.83;13.25;;;;;;;;;;5076357;28;20034;-62
2021/10/27 20:56:20;;;;;;;33.90;14.50;;;;;;;;;;5058215;28;20493;-60
2021/10/27 21:12:52;;;;;;;39.60;16.17;;;;;;;;;;5049457;28;20431;-62
2021/10/27 21:15:18;;;;;;;38.40;15.90;;;;;;;;;;5057082;28;20036;-61
2021/10/27 21:17:44;;;;;;;40.05;14.77;;;;;;;;;;5058497;28;20142;-62
2021/10/27 21:20:09;;;;;;;33.92;13.38;;;;;;;;;;5058944;28;20051;-62
2021/10/27 21:22:38;;;;;;;36.85;15.52;;;;;;;;;;5059625;28;20028;-61
2021/10/27 21:25:08;;;;;;;41.72;14.60;;;;;;;;;;5076799;28;21229;-63
2021/10/27 21:27:48;;;;;;;42.88;15.63;;;;;;;;;;5075986;28;20036;-62
2021/10/27 21:43:34;;;;;;;43.50;17.77;;;;;;;;;;5076511;28;20662;-61
2021/10/27 21:46:00;;;;;;;48.90;17.38;;;;;;;;;;5044137;28;20040;-61
2021/10/27 21:48:25;;;;;;;43.05;18.17;;;;;;;;;;5057889;28;20036;-61